Time;durP1;ratioP1;P1;durP2;ratioP2;P2;SDS_P1;SDS_P2;PMS_P1;PMS_P2;Temp;Humidity;BMP_temperature;BMP_pressure;BME280_temperature;BME280_humidity;BME280_pressure;Samples;Min_cycle;Max_cycle;Signal;HPM_P1;HPM_P2
2021/01/05 00:02:38;;;;;;;21.17;13.88;;;;;;;4.10;70.74;101569.63;1712061;82;21224;-53
2021/01/05 00:05:44;;;;;;;26.37;15.50;;;;;;;4.14;70.66;101573.84;1691941;85;21376;-53
2021/01/05 00:08:49;;;;;;;20.08;14.75;;;;;;;4.11;70.52;101575.89;1712480;82;21374;-54
2021/01/05 00:12:17;;;;;;;21.33;15.72;;;;;;;4.11;70.51;101567.28;1692461;85;21368;-53
2021/01/05 00:15:23;;;;;;;23.27;15.45;;;;;;;4.09;70.60;101563.80;1712829;83;21288;-54
2021/01/05 00:18:28;;;;;;;20.85;14.65;;;;;;;4.10;70.54;101565.56;1692454;83;21391;-53
2021/01/05 00:21:34;;;;;;;21.12;14.60;;;;;;;4.06;70.48;101562.66;1712467;83;21705;-54
2021/01/05 00:24:40;;;;;;;18.62;12.53;;;;;;;4.06;70.51;101565.37;1712311;82;21251;-54
2021/01/05 00:27:45;;;;;;;21.00;14.85;;;;;;;4.10;70.48;101564.68;1691688;83;21432;-53
2021/01/05 00:30:52;;;;;;;23.87;15.30;;;;;;;4.10;70.36;101566.91;1712429;83;21752;-56
2021/01/05 00:33:56;;;;;;;25.15;15.98;;;;;;;4.13;70.54;101563.11;1688610;83;21415;-53
2021/01/05 00:37:02;;;;;;;26.82;17.27;;;;;;;4.20;70.51;101550.38;1713203;83;21244;-53
2021/01/05 00:40:08;;;;;;;21.52;14.65;;;;;;;4.30;70.45;101554.67;1692117;85;21440;-54
2021/01/05 00:43:16;;;;;;;25.25;15.88;;;;;;;4.38;70.30;101555.87;1712351;82;21228;-54
2021/01/05 00:46:22;;;;;;;18.80;11.97;;;;;;;4.46;70.02;101557.56;1692202;85;21388;-53
2021/01/05 00:49:28;;;;;;;21.57;13.68;;;;;;;4.46;69.60;101552.62;1712402;82;21939;-53
2021/01/05 00:52:34;;;;;;;27.30;15.45;;;;;;;4.36;69.77;101555.62;1692258;83;21297;-52
2021/01/05 00:55:40;;;;;;;24.92;14.80;;;;;;;4.39;70.01;101552.17;1712499;83;21204;-54
2021/01/05 00:58:48;;;;;;;24.60;14.45;;;;;;;4.44;69.97;101546.42;1692472;83;21711;-53
2021/01/05 01:01:54;;;;;;;25.70;14.33;;;;;;;4.47;69.96;101543.02;1719603;83;21410;-54
2021/01/05 01:05:01;;;;;;;23.02;13.55;;;;;;;4.51;69.86;101543.20;1692707;85;21335;-54
2021/01/05 01:08:08;;;;;;;21.65;13.62;;;;;;;4.55;69.82;101534.36;1718646;82;22076;-53
2021/01/05 01:11:15;;;;;;;22.25;14.05;;;;;;;4.59;69.81;101537.22;1692637;85;21190;-53
2021/01/05 01:14:27;;;;;;;20.20;13.43;;;;;;;4.65;69.81;101530.50;1719762;82;21792;-53
2021/01/05 01:17:33;;;;;;;23.45;13.18;;;;;;;4.63;69.64;101528.38;1692694;83;21237;-55
2021/01/05 01:20:40;;;;;;;22.10;13.13;;;;;;;4.60;69.86;101537.58;1719710;83;21895;-54
2021/01/05 01:23:47;;;;;;;23.75;13.03;;;;;;;4.58;69.91;101530.07;1692745;83;21359;-54
2021/01/05 01:26:53;;;;;;;19.55;12.85;;;;;;;4.57;70.02;101533.27;1719557;83;21384;-54
2021/01/05 01:30:02;;;;;;;18.85;12.73;;;;;;;4.57;70.10;101533.27;1692193;85;21198;-54
2021/01/05 01:33:09;;;;;;;20.30;12.90;;;;;;;4.60;70.14;101524.02;1719442;82;21975;-55
2021/01/05 01:36:16;;;;;;;24.92;14.73;;;;;;;4.61;70.21;101523.91;1692692;85;21363;-54
2021/01/05 01:39:23;;;;;;;21.35;13.78;;;;;;;4.66;70.22;101520.91;1718893;82;21764;-54
2021/01/05 01:42:30;;;;;;;23.00;14.35;;;;;;;4.70;70.21;101512.03;1692583;83;21375;-54
2021/01/05 01:45:37;;;;;;;23.75;13.32;;;;;;;4.74;70.18;101498.64;1719742;83;21736;-53
2021/01/05 01:48:44;;;;;;;20.15;12.82;;;;;;;4.74;70.08;101493.22;1692359;83;21378;-53
2021/01/05 01:51:51;;;;;;;22.82;12.18;;;;;;;4.70;70.09;101488.98;1719784;83;21255;-53
2021/01/05 01:55:18;;;;;;;23.10;14.50;;;;;;;4.68;70.10;101499.94;1692711;85;21896;-53
2021/01/05 01:58:47;;;;;;;20.65;13.13;;;;;;;4.71;70.24;101487.50;1718149;81;21212;-53
2021/01/05 02:02:10;;;;;;;17.75;12.70;;;;;;;4.74;70.12;101483.21;1714316;83;21203;-53
2021/01/05 02:05:20;;;;;;;20.37;13.83;;;;;;;4.69;70.17;101484.06;1692654;85;21408;-53
2021/01/05 02:08:56;;;;;;;21.40;14.65;;;;;;;4.70;70.24;101469.98;1712530;82;21255;-53
2021/01/05 02:12:05;;;;;;;20.80;12.93;;;;;;;4.68;70.23;101470.62;1692745;85;21359;-53
2021/01/05 02:15:52;;;;;;;22.48;14.73;;;;;;;4.63;70.38;101461.43;1712810;83;21224;-54
2021/01/05 02:19:23;;;;;;;24.95;15.00;;;;;;;4.67;70.47;101459.38;1690395;83;21356;-53
2021/01/05 02:23:15;;;;;;;21.60;15.35;;;;;;;4.69;70.46;101458.78;1712933;82;21747;-53
2021/01/05 02:26:45;;;;;;;24.98;16.52;;;;;;;4.67;70.47;101455.30;1692691;85;21198;-55
2021/01/05 02:29:59;;;;;;;21.95;13.85;;;;;;;4.62;70.53;101454.28;1712598;83;21244;-54
2021/01/05 02:33:49;;;;;;;20.45;14.43;;;;;;;4.56;70.70;101447.48;1714509;82;21255;-53
2021/01/05 02:37:07;;;;;;;21.45;14.03;;;;;;;4.63;70.79;101443.80;1692807;85;21351;-54
2021/01/05 02:40:51;;;;;;;24.30;16.15;;;;;;;4.68;70.75;101449.77;1712707;83;21204;-53
2021/01/05 02:44:42;;;;;;;23.83;13.98;;;;;;;4.68;70.77;101440.78;1691681;83;21233;-53
2021/01/05 02:48:30;;;;;;;19.05;14.03;;;;;;;4.67;70.77;101445.81;1712579;82;21605;-53
2021/01/05 02:52:43;;;;;;;16.97;12.15;;;;;;;4.58;70.65;101444.15;1692042;85;21245;-54
2021/01/05 02:56:47;;;;;;;17.32;11.65;;;;;;;4.44;70.95;101436.16;1712652;83;21532;-53
2021/01/05 03:00:50;;;;;;;18.55;13.48;;;;;;;4.41;71.34;101430.96;1714410;80;21691;-54
2021/01/05 03:04:14;;;;;;;16.95;13.18;;;;;;;4.42;71.50;101425.91;1692626;83;21222;-54
2021/01/05 03:07:37;;;;;;;19.90;13.13;;;;;;;4.52;71.47;101427.45;1712488;82;21320;-54
2021/01/05 03:11:12;;;;;;;;;;;;;;;4.53;71.24;101427.85;1717392;83;21275;-54
2021/01/05 03:14:59;;;;;;;20.48;15.28;;;;;;;4.56;71.26;101427.63;1715110;82;20564;-53
2021/01/05 03:18:39;;;;;;;27.85;18.07;;;;;;;4.58;71.20;101422.45;1626416;88;21742;-53
2021/01/05 03:21:58;;;;;;;32.65;20.43;;;;;;;4.62;71.17;101423.10;1618111;85;21242;-53
2021/01/05 03:25:21;;;;;;;31.30;22.93;;;;;;;4.68;71.00;101417.22;1713328;83;21221;-53
2021/01/05 03:28:45;;;;;;;;;;;;;;;4.59;70.66;101410.65;1695023;83;21356;-53
2021/01/05 03:32:13;;;;;;;35.48;22.80;;;;;;;4.53;70.73;101416.50;1692007;85;20278;-53
2021/01/05 03:35:35;;;;;;;40.05;23.25;;;;;;;4.54;70.74;101404.69;1712434;83;21259;-53
2021/01/05 03:39:00;;;;;;;37.75;23.73;;;;;;;4.55;70.70;101402.34;1692378;83;21193;-51
2021/01/05 03:42:23;;;;;;;35.15;23.00;;;;;;;4.49;70.81;101397.86;1712597;83;21596;-51
2021/01/05 03:45:46;;;;;;;31.57;22.50;;;;;;;4.48;70.89;101409.22;1692749;85;21237;-51
2021/01/05 03:49:09;;;;;;;27.17;20.10;;;;;;;4.44;70.96;101399.55;1712474;82;21255;-51
2021/01/05 03:52:32;;;;;;;28.38;20.05;;;;;;;4.50;70.93;101402.33;1692690;83;21206;-51
2021/01/05 03:55:56;;;;;;;31.48;20.85;;;;;;;4.55;70.87;101406.41;1712636;83;21216;-51
2021/01/05 03:59:19;;;;;;;30.48;21.87;;;;;;;4.58;70.51;101408.89;1691632;83;21348;-51
2021/01/05 04:02:42;;;;;;;36.73;24.15;;;;;;;4.51;70.49;101402.21;1713297;82;21214;-51
2021/01/05 04:05:48;;;;;;;37.42;24.35;;;;;;;4.50;70.38;101401.81;1692305;85;21308;-51
2021/01/05 04:08:54;;;;;;;36.08;23.55;;;;;;;4.48;70.30;101394.30;1713137;82;21788;-51
2021/01/05 04:11:58;;;;;;;36.08;24.10;;;;;;;4.52;70.22;101393.56;1692176;85;21312;-52
2021/01/05 04:15:03;;;;;;;42.00;27.42;;;;;;;4.53;70.25;101386.67;1712727;83;21785;-51
2021/01/05 04:18:09;;;;;;;42.98;27.20;;;;;;;4.49;69.87;101383.83;1692380;83;21340;-52
2021/01/05 04:21:16;;;;;;;45.50;28.77;;;;;;;4.41;69.96;101386.23;1712856;83;21792;-52
2021/01/05 04:24:21;;;;;;;43.17;27.40;;;;;;;4.39;69.80;101385.47;1671386;84;21371;-52
2021/01/05 04:27:27;;;;;;;40.48;25.15;;;;;;;4.37;69.61;101384.73;1712490;83;21525;-52
2021/01/05 04:30:38;;;;;;;43.48;25.48;;;;;;;4.29;69.65;101389.84;1692800;85;21186;-51
2021/01/05 04:33:44;;;;;;;42.38;26.52;;;;;;;4.22;69.71;101385.84;1712455;82;21283;-50
2021/01/05 04:36:49;;;;;;;39.25;25.30;;;;;;;4.24;69.95;101392.02;1712451;83;21204;-51
2021/01/05 04:39:56;;;;;;;37.33;23.60;;;;;;;4.32;69.93;101390.98;1714620;83;21769;-50
2021/01/05 04:43:26;;;;;;;40.28;25.50;;;;;;;4.38;69.78;101387.81;1714720;82;21267;-50
2021/01/05 04:46:48;;;;;;;34.23;22.52;;;;;;;4.41;69.79;101378.58;1692536;85;21186;-53
2021/01/05 04:50:15;;;;;;;30.68;20.20;;;;;;;4.41;69.58;101375.39;1712283;83;22114;-51
2021/01/05 04:53:27;;;;;;;30.57;20.45;;;;;;;4.35;69.38;101366.84;1692148;83;21873;-51
2021/01/05 04:56:38;;;;;;;32.17;21.30;;;;;;;4.30;69.47;101375.30;1712231;83;21316;-51
2021/01/05 04:59:49;;;;;;;27.10;18.37;;;;;;;4.31;69.50;101367.55;1711754;82;21240;-51
2021/01/05 05:03:05;;;;;;;28.35;19.15;;;;;;;4.32;69.52;101376.55;1687333;81;21328;-52
2021/01/05 05:06:43;;;;;;;30.90;20.55;;;;;;;4.23;69.41;101377.23;1695092;84;21210;-52
2021/01/05 05:09:58;;;;;;;39.35;23.22;;;;;;;4.19;69.43;101386.55;1717789;82;21235;-52
2021/01/05 05:13:24;;;;;;;31.85;20.92;;;;;;;4.12;69.36;101387.47;1685511;84;21371;-50
2021/01/05 05:16:58;;;;;;;30.20;20.25;;;;;;;3.96;69.25;101392.28;1694994;84;21240;-51
2021/01/05 05:20:23;;;;;;;;;;;;;;;3.81;69.68;101390.64;1722541;83;21441;-52
2021/01/05 05:24:01;;;;;;;30.65;19.12;;;;;;;3.76;69.92;101395.52;1720026;82;20387;-54
2021/01/05 05:27:26;;;;;;;22.50;14.73;;;;;;;3.64;69.92;101397.74;1685632;85;21245;-53
2021/01/05 05:30:48;;;;;;;30.25;18.70;;;;;;;3.54;70.01;101392.58;1695024;84;21532;-52
2021/01/05 05:33:54;;;;;;;25.65;18.30;;;;;;;3.56;70.30;101391.99;1694930;83;21255;-51
2021/01/05 05:37:32;;;;;;;27.80;18.75;;;;;;;3.65;70.36;101406.70;1717767;83;21374;-51
2021/01/05 05:41:16;;;;;;;24.98;16.15;;;;;;;3.70;70.32;101408.13;1685440;84;21340;-50
2021/01/05 05:44:30;;;;;;;23.73;15.20;;;;;;;3.71;70.30;101413.91;1682003;84;21599;-51
2021/01/05 05:48:03;;;;;;;18.45;14.25;;;;;;;3.65;70.21;101413.47;1720104;82;21462;-51
2021/01/05 05:51:14;;;;;;;;;;;;;;;3.67;70.11;101411.06;1688049;85;21448;-51
2021/01/05 05:54:22;;;;;;;20.05;14.63;;;;;;;3.59;69.89;101408.49;1685731;83;20322;-51
2021/01/05 05:57:51;;;;;;;22.73;15.68;;;;;;;3.58;70.17;101403.59;1694781;84;21597;-50
2021/01/05 06:01:02;;;;;;;21.70;15.15;;;;;;;3.63;70.23;101410.03;1717691;83;21247;-52
2021/01/05 06:04:10;;;;;;;24.50;17.20;;;;;;;3.63;70.02;101412.23;1711041;82;21220;-51
2021/01/05 06:07:15;;;;;;;35.75;22.32;;;;;;;3.61;70.00;101420.97;1711758;83;21320;-51
2021/01/05 06:10:21;;;;;;;42.62;29.18;;;;;;;3.55;69.82;101406.48;1710621;83;21778;-51
2021/01/05 06:13:27;;;;;;;34.73;22.73;;;;;;;3.42;69.75;101412.38;1709702;83;21296;-51
2021/01/05 06:16:32;;;;;;;28.83;20.77;;;;;;;3.44;70.00;101405.51;1686293;84;21518;-51
2021/01/05 06:19:37;;;;;;;38.67;29.52;;;;;;;3.44;69.82;101402.30;1680897;84;21198;-51
2021/01/05 06:22:43;;;;;;;30.60;22.50;;;;;;;3.44;69.65;101410.41;1683619;83;21173;-51
2021/01/05 06:25:48;;;;;;;32.38;21.80;;;;;;;3.43;69.67;101399.22;1686043;85;21261;-51
2021/01/05 06:28:56;;;;;;;30.27;21.45;;;;;;;3.48;69.59;101409.25;1686184;84;21322;-50
2021/01/05 06:32:04;;;;;;;31.45;22.00;;;;;;;3.51;69.55;101404.97;1686446;84;21225;-51
2021/01/05 06:35:09;;;;;;;33.15;23.45;;;;;;;3.56;69.44;101398.76;1686433;84;21249;-52
2021/01/05 06:38:16;;;;;;;34.48;24.23;;;;;;;3.60;69.38;101404.33;1686517;83;21766;-52
2021/01/05 06:41:21;;;;;;;39.45;24.77;;;;;;;3.59;69.27;101403.95;1687170;83;21201;-52
2021/01/05 06:44:27;;;;;;;36.88;24.52;;;;;;;3.59;69.25;101403.08;1687677;85;21604;-51
2021/01/05 06:47:33;;;;;;;30.32;22.95;;;;;;;3.62;69.18;101410.51;1704301;84;21284;-51
2021/01/05 06:50:38;;;;;;;39.70;25.70;;;;;;;3.57;69.02;101405.89;1710338;83;21287;-51
2021/01/05 06:53:43;;;;;;;34.90;24.25;;;;;;;3.47;69.05;101414.30;1701439;82;21264;-51
2021/01/05 06:57:02;;;;;;;34.78;24.02;;;;;;;3.35;69.42;101417.82;1697523;83;21208;-50
2021/01/05 07:00:09;;;;;;;34.50;24.07;;;;;;;3.32;69.57;101412.63;1699849;83;22109;-51
2021/01/05 07:03:17;;;;;;;31.95;23.73;;;;;;;3.29;69.65;101415.54;1698670;80;21229;-51
2021/01/05 07:06:21;;;;;;;32.45;23.65;;;;;;;3.26;69.75;101399.52;1703089;83;21220;-51
2021/01/05 07:09:27;;;;;;;32.15;24.07;;;;;;;3.34;69.95;101409.81;1693310;83;21287;-50
2021/01/05 07:12:32;;;;;;;32.78;23.87;;;;;;;3.44;69.95;101406.35;1702272;83;21324;-50
2021/01/05 07:15:37;;;;;;;32.58;23.65;;;;;;;3.57;69.84;101411.82;1703246;83;21640;-51
2021/01/05 07:18:44;;;;;;;29.55;21.68;;;;;;;3.61;69.37;101410.14;1660879;84;21233;-51
2021/01/05 07:21:50;;;;;;;30.52;22.32;;;;;;;3.54;69.40;101403.41;1683989;84;21390;-52
2021/01/05 07:24:57;;;;;;;32.50;22.58;;;;;;;3.50;69.16;101408.67;1711584;82;21185;-51
2021/01/05 07:28:02;;;;;;;31.10;22.95;;;;;;;3.43;69.26;101411.88;1699406;83;21212;-52
2021/01/05 07:31:07;;;;;;;32.65;24.43;;;;;;;3.40;69.35;101406.20;1698408;83;21309;-50
2021/01/05 07:34:13;;;;;;;31.97;23.10;;;;;;;3.39;69.22;101403.60;1702662;83;21350;-50
2021/01/05 07:37:24;;;;;;;38.63;28.35;;;;;;;3.41;69.04;101411.98;1702318;83;21232;-50
2021/01/05 07:40:30;;;;;;;28.23;20.68;;;;;;;3.40;69.09;101409.38;1702889;83;21832;-51
2021/01/05 07:43:36;;;;;;;30.65;21.77;;;;;;;3.39;68.93;101404.48;1688897;83;21757;-51
2021/01/05 07:46:41;;;;;;;30.10;21.68;;;;;;;3.37;68.91;101422.66;1688936;84;21215;-52
2021/01/05 07:49:46;;;;;;;39.65;28.15;;;;;;;3.26;68.80;101417.58;1688444;83;21311;-51
2021/01/05 07:52:52;;;;;;;39.10;28.07;;;;;;;3.15;69.01;101420.15;1715511;83;21285;-51
2021/01/05 07:55:59;;;;;;;35.43;25.65;;;;;;;3.12;69.13;101419.00;1663721;86;21380;-51
2021/01/05 07:59:05;;;;;;;34.70;23.22;;;;;;;3.10;69.42;101412.34;1707777;83;21232;-51
2021/01/05 08:02:10;;;;;;;31.25;22.73;;;;;;;3.12;69.44;101415.83;1716070;83;21235;-52
2021/01/05 08:05:20;;;;;;;32.58;24.47;;;;;;;3.15;69.30;101405.27;1691329;84;21410;-51
2021/01/05 08:08:26;;;;;;;33.80;24.80;;;;;;;3.15;69.12;101407.50;1646888;86;21241;-51
2021/01/05 08:11:31;;;;;;;35.38;24.70;;;;;;;3.12;68.94;101409.06;1711330;83;21303;-52
2021/01/05 08:14:37;;;;;;;33.78;23.67;;;;;;;3.02;69.07;101399.35;1682406;83;21251;-51
2021/01/05 08:17:43;;;;;;;38.40;27.67;;;;;;;3.04;69.29;101408.71;1694298;84;21285;-50
2021/01/05 08:20:50;;;;;;;32.88;23.85;;;;;;;2.94;69.14;101407.11;1698274;84;21350;-52
2021/01/05 08:23:56;;;;;;;41.60;29.02;;;;;;;2.88;69.41;101403.94;1697964;83;21701;-51
2021/01/05 08:27:04;;;;;;;37.90;27.40;;;;;;;2.87;69.65;101400.87;1683259;85;21292;-52
2021/01/05 08:30:12;;;;;;;38.98;26.45;;;;;;;2.96;69.87;101401.12;1697926;84;21361;-52
2021/01/05 08:33:20;;;;;;;35.15;24.67;;;;;;;3.08;69.84;101400.75;1703109;83;21236;-51
2021/01/05 08:36:39;;;;;;;35.03;24.70;;;;;;;3.12;69.58;101386.55;1676637;84;21968;-50
2021/01/05 08:39:46;;;;;;;36.35;26.10;;;;;;;3.16;69.58;101383.52;1682525;85;21766;-51
2021/01/05 08:42:47;;;;;;;37.83;26.45;;;;;;;3.24;69.58;101379.81;1719991;83;21302;-51
2021/01/05 08:45:55;;;;;;;35.00;25.57;;;;;;;3.29;69.42;101374.95;1726057;83;21216;-52
2021/01/05 08:49:03;;;;;;;36.10;26.17;;;;;;;3.37;69.30;101369.88;1717592;83;21405;-51
2021/01/05 08:52:08;;;;;;;37.78;27.25;;;;;;;3.41;69.05;101373.25;1664776;86;21524;-53
2021/01/05 08:55:14;;;;;;;33.98;24.80;;;;;;;3.43;68.79;101358.63;1687309;84;21388;-52
2021/01/05 08:58:20;;;;;;;32.93;23.25;;;;;;;3.46;68.68;101370.59;1725883;81;21211;-51
2021/01/05 09:01:28;;;;;;;31.02;22.62;;;;;;;3.42;68.33;101353.32;1707955;83;21954;-52
2021/01/05 09:04:33;;;;;;;34.73;24.72;;;;;;;3.41;68.31;101351.59;1712527;81;21346;-52
2021/01/05 09:07:39;;;;;;;38.53;28.47;;;;;;;3.43;68.42;101341.03;1698310;82;21223;-50
2021/01/05 09:10:44;;;;;;;37.42;25.90;;;;;;;3.46;68.27;101339.46;1698084;84;21216;-52
2021/01/05 09:13:50;;;;;;;40.12;26.77;;;;;;;3.44;68.14;101344.11;1698542;83;21325;-52
2021/01/05 09:16:56;;;;;;;37.50;25.75;;;;;;;3.38;68.00;101350.46;1697605;83;21278;-51
2021/01/05 09:20:02;;;;;;;40.78;27.80;;;;;;;3.32;68.19;101344.97;1692279;83;21255;-52
2021/01/05 09:23:08;;;;;;;45.45;28.80;;;;;;;3.41;68.43;101331.30;1690891;83;21750;-52
2021/01/05 09:26:12;;;;;;;45.92;30.23;;;;;;;3.51;68.39;101321.54;1683599;83;21558;-52
2021/01/05 09:29:16;;;;;;;49.80;32.23;;;;;;;3.54;68.33;101318.14;1706772;84;21240;-51
2021/01/05 09:32:22;;;;;;;55.38;36.93;;;;;;;3.59;68.33;101313.27;1707651;84;21208;-52
2021/01/05 09:35:27;;;;;;;53.23;33.88;;;;;;;3.68;68.32;101313.11;1709654;84;21202;-57
2021/01/05 09:38:31;;;;;;;39.27;27.93;;;;;;;3.75;68.18;101312.56;1706971;83;21272;-50
2021/01/05 09:41:47;;;;;;;37.08;26.02;;;;;;;3.85;67.84;101301.45;1698799;83;21204;-50
2021/01/05 09:44:53;;;;;;;40.08;27.07;;;;;;;3.92;67.57;101293.72;1715562;82;21251;-54
2021/01/05 09:47:57;;;;;;;46.90;31.10;;;;;;;3.98;67.29;101297.36;1675710;85;21601;-52
2021/01/05 09:51:03;;;;;;;43.23;27.93;;;;;;;3.96;66.84;101291.19;1713447;83;21354;-52
2021/01/05 09:54:10;;;;;;;40.63;28.77;;;;;;;3.86;66.83;101280.15;1715996;83;21369;-52
2021/01/05 09:57:14;;;;;;;39.75;27.48;;;;;;;3.81;66.89;101291.80;1705039;84;21204;-52
2021/01/05 10:00:20;;;;;;;37.28;24.57;;;;;;;3.81;66.90;101285.03;1709556;83;21216;-52
2021/01/05 10:03:25;;;;;;;35.43;25.43;;;;;;;3.84;66.94;101283.92;1710324;82;21236;-52
2021/01/05 10:06:36;;;;;;;39.60;27.70;;;;;;;3.91;66.97;101275.75;1709469;81;21358;-51
2021/01/05 10:09:42;;;;;;;35.98;25.43;;;;;;;3.97;66.80;101268.05;1713707;83;21243;-57
2021/01/05 10:12:48;;;;;;;31.68;23.00;;;;;;;3.90;66.41;101259.13;1706579;82;21526;-51
2021/01/05 10:15:55;;;;;;;34.30;24.12;;;;;;;3.91;66.47;101263.09;1693537;83;21475;-52
2021/01/05 10:19:00;;;;;;;35.78;24.57;;;;;;;3.98;66.36;101249.95;1688186;83;21240;-51
2021/01/05 10:22:05;;;;;;;34.78;25.35;;;;;;;4.02;66.40;101249.62;1683434;85;21223;-53
2021/01/05 10:25:11;;;;;;;36.45;25.95;;;;;;;4.04;66.28;101255.76;1631332;86;21802;-52
2021/01/05 10:28:16;;;;;;;34.67;25.37;;;;;;;4.08;66.40;101250.98;1652962;85;21263;-52
2021/01/05 10:31:21;;;;;;;35.65;22.37;;;;;;;4.13;66.02;101243.39;1686682;85;21196;-52
2021/01/05 10:34:28;;;;;;;33.38;23.07;;;;;;;4.10;65.39;101253.98;1686520;83;21307;-52
2021/01/05 10:37:34;;;;;;;33.25;23.70;;;;;;;3.97;65.30;101246.38;1689606;82;21627;-52
2021/01/05 10:40:39;;;;;;;35.63;24.32;;;;;;;3.92;65.49;101246.32;1686245;84;21158;-53
2021/01/05 10:43:44;;;;;;;31.68;22.50;;;;;;;3.92;65.55;101245.84;1685957;85;22055;-53
2021/01/05 10:46:51;;;;;;;35.25;24.72;;;;;;;4.01;65.68;101246.51;1690082;85;21288;-53
2021/01/05 10:49:56;;;;;;;34.45;22.60;;;;;;;4.10;65.54;101245.85;1674497;85;21758;-52
2021/01/05 10:53:02;;;;;;;34.25;23.07;;;;;;;4.10;65.37;101248.56;1714008;83;21792;-52
2021/01/05 10:56:07;;;;;;;34.70;22.67;;;;;;;4.11;65.57;101242.63;1710104;83;21212;-52
2021/01/05 10:59:13;;;;;;;33.02;23.22;;;;;;;4.15;65.54;101240.09;1686067;83;21255;-53
2021/01/05 11:02:18;;;;;;;35.52;25.72;;;;;;;4.15;65.55;101227.89;1669972;84;21234;-53
2021/01/05 11:05:24;;;;;;;31.45;22.42;;;;;;;4.15;65.61;101211.16;1639371;86;21224;-53
2021/01/05 11:08:29;;;;;;;32.95;22.37;;;;;;;4.17;65.34;101196.98;1678484;81;21325;-54
2021/01/05 11:11:34;;;;;;;43.63;29.60;;;;;;;4.14;65.09;101193.16;1688466;85;21219;-54
2021/01/05 11:14:40;;;;;;;33.28;23.00;;;;;;;3.99;65.16;101190.25;1703371;83;21776;-54
2021/01/05 11:17:44;;;;;;;29.92;20.62;;;;;;;3.86;65.35;101207.03;1713626;83;21804;-53
2021/01/05 11:20:50;;;;;;;37.63;24.45;;;;;;;3.90;65.53;101204.97;1713551;83;21581;-53
2021/01/05 11:23:57;;;;;;;34.27;22.13;;;;;;;4.01;65.50;101192.84;1681509;85;21731;-53
2021/01/05 11:27:03;;;;;;;32.00;22.35;;;;;;;4.04;65.33;101202.94;1710760;83;21275;-53
2021/01/05 11:30:11;;;;;;;32.55;23.12;;;;;;;4.06;65.30;101192.02;1717582;83;21192;-53
2021/01/05 11:33:16;;;;;;;33.58;23.30;;;;;;;4.08;65.10;101176.01;1717584;83;21267;-53
2021/01/05 11:36:33;;;;;;;31.77;21.07;;;;;;;3.93;65.22;101183.91;1705364;83;21426;-54
2021/01/05 11:39:39;;;;;;;32.30;21.97;;;;;;;3.93;65.66;101189.33;1694165;83;21219;-54
2021/01/05 11:42:45;;;;;;;36.42;25.37;;;;;;;3.97;65.50;101185.91;1698930;84;21749;-54
2021/01/05 11:45:50;;;;;;;39.33;25.88;;;;;;;3.82;65.53;101185.20;1718963;83;21231;-53
2021/01/05 11:48:56;;;;;;;46.77;29.87;;;;;;;3.83;65.80;101193.72;1719511;83;21262;-53
2021/01/05 11:52:02;;;;;;;30.97;20.80;;;;;;;3.87;65.76;101199.27;1707184;83;21438;-54
2021/01/05 11:55:08;;;;;;;33.50;23.55;;;;;;;3.89;65.78;101208.16;1717025;83;21740;-53
2021/01/05 11:58:14;;;;;;;33.73;22.35;;;;;;;3.96;65.89;101193.19;1706702;83;21244;-53
2021/01/05 12:01:19;;;;;;;39.45;24.00;;;;;;;4.01;65.76;101193.69;1689137;84;21201;-54
2021/01/05 12:04:25;;;;;;;37.20;23.85;;;;;;;3.96;65.57;101189.13;1698679;82;21232;-55
2021/01/05 12:07:31;;;;;;;32.78;21.70;;;;;;;3.93;65.71;101187.97;1682933;84;21231;-54
2021/01/05 12:10:36;;;;;;;36.58;24.60;;;;;;;3.98;65.73;101185.79;1689556;81;21395;-52
2021/01/05 12:13:41;;;;;;;31.05;21.60;;;;;;;3.88;65.68;101190.19;1711632;82;21243;-54
2021/01/05 12:16:49;;;;;;;31.75;21.82;;;;;;;3.90;65.99;101184.14;1702990;84;21252;-54
2021/01/05 12:19:54;;;;;;;31.05;20.62;;;;;;;4.01;66.06;101184.72;1711068;84;21204;-54
2021/01/05 12:22:59;;;;;;;31.95;22.75;;;;;;;4.10;65.90;101173.18;1710609;82;21235;-54
2021/01/05 12:26:04;;;;;;;30.75;21.42;;;;;;;4.11;65.77;101181.67;1710669;84;21220;-54
2021/01/05 12:29:11;;;;;;;33.80;23.05;;;;;;;4.15;65.67;101179.13;1691581;83;21777;-54
2021/01/05 12:32:22;;;;;;;36.93;23.18;;;;;;;4.16;65.56;101181.72;1705901;83;21220;-54
2021/01/05 12:35:27;;;;;;;35.58;23.50;;;;;;;4.21;65.42;101184.95;1710175;83;21589;-54
2021/01/05 12:38:32;;;;;;;35.88;23.15;;;;;;;4.07;65.09;101168.87;1709697;84;21861;-53
2021/01/05 12:41:40;;;;;;;40.60;24.85;;;;;;;4.00;65.35;101181.13;1713048;83;21392;-53
2021/01/05 12:44:45;;;;;;;40.73;24.72;;;;;;;4.03;65.58;101167.36;1712959;83;21216;-53
2021/01/05 12:47:50;;;;;;;36.30;24.18;;;;;;;4.09;65.29;101177.72;1689251;83;21961;-54
2021/01/05 12:50:55;;;;;;;37.88;23.65;;;;;;;4.01;65.46;101186.91;1695428;83;21260;-53
2021/01/05 12:54:02;;;;;;;37.60;24.50;;;;;;;3.96;65.51;101176.94;1709354;84;21244;-54
2021/01/05 12:57:08;;;;;;;37.93;23.25;;;;;;;3.92;65.56;101180.84;1700840;83;21204;-54
2021/01/05 13:00:16;;;;;;;43.15;28.87;;;;;;;3.82;65.61;101181.13;1688775;85;21754;-52
2021/01/05 13:03:23;;;;;;;40.65;25.80;;;;;;;3.79;65.81;101182.72;1700518;84;21275;-53
2021/01/05 13:06:28;;;;;;;40.23;26.00;;;;;;;3.69;65.86;101186.23;1686598;84;21178;-53
2021/01/05 13:09:33;;;;;;;48.75;26.37;;;;;;;3.68;66.22;101187.22;1681539;84;21255;-54
2021/01/05 13:12:39;;;;;;;47.67;27.02;;;;;;;3.71;66.44;101188.34;1687017;83;21601;-54
2021/01/05 13:15:45;;;;;;;47.05;26.55;;;;;;;3.75;66.31;101183.06;1701253;83;21213;-54
2021/01/05 13:18:51;;;;;;;40.60;25.12;;;;;;;3.78;66.22;101174.23;1713792;83;21220;-55
2021/01/05 13:21:58;;;;;;;40.65;24.02;;;;;;;3.79;66.23;101175.11;1686067;84;21224;-53
2021/01/05 13:25:03;;;;;;;46.50;26.62;;;;;;;3.79;66.10;101191.36;1704110;83;21217;-54
2021/01/05 13:28:09;;;;;;;44.45;26.87;;;;;;;3.78;66.09;101189.13;1712981;82;21236;-54
2021/01/05 13:31:14;;;;;;;34.58;21.57;;;;;;;3.81;66.23;101191.60;1698215;83;21659;-54
2021/01/05 13:34:24;;;;;;;33.55;20.85;;;;;;;3.77;66.06;101185.17;1692011;83;21213;-55
2021/01/05 13:37:29;;;;;;;34.80;21.97;;;;;;;3.70;66.17;101180.70;1685811;83;21512;-54
2021/01/05 13:40:34;;;;;;;44.77;25.88;;;;;;;3.67;66.27;101182.28;1692364;83;21180;-54
2021/01/05 13:43:39;;;;;;;50.20;29.05;;;;;;;3.67;66.58;101175.52;1698040;83;21284;-55
2021/01/05 13:46:46;;;;;;;46.18;26.57;;;;;;;3.67;66.61;101165.16;1688151;84;21190;-54
2021/01/05 13:49:54;;;;;;;39.95;25.72;;;;;;;3.69;66.75;101162.73;1687945;84;21233;-53
2021/01/05 13:53:01;;;;;;;37.78;23.57;;;;;;;3.74;66.81;101169.16;1703133;83;21304;-54
2021/01/05 13:56:08;;;;;;;41.80;24.27;;;;;;;3.80;66.74;101151.98;1709991;83;21310;-55
2021/01/05 13:59:16;;;;;;;49.30;29.90;;;;;;;3.81;66.52;101160.47;1702632;82;21593;-54
2021/01/05 14:02:27;;;;;;;42.13;26.40;;;;;;;3.71;66.50;101163.47;1710073;83;21430;-54
2021/01/05 14:05:35;;;;;;;35.23;21.17;;;;;;;3.74;66.51;101164.59;1715272;83;21354;-54
2021/01/05 14:08:42;;;;;;;32.15;21.05;;;;;;;3.77;66.45;101156.75;1695611;83;21689;-54
2021/01/05 14:11:48;;;;;;;32.58;22.37;;;;;;;3.74;66.46;101158.33;1685689;84;21255;-57
2021/01/05 14:14:55;;;;;;;32.15;22.32;;;;;;;3.73;66.41;101152.52;1677711;83;21213;-54
2021/01/05 14:18:02;;;;;;;34.88;22.45;;;;;;;3.65;66.40;101155.80;1701624;84;21259;-54
2021/01/05 14:21:08;;;;;;;30.17;20.23;;;;;;;3.61;66.57;101162.44;1704677;84;21268;-54
2021/01/05 14:24:27;;;;;;;31.97;20.88;;;;;;;3.65;66.59;101153.58;1709445;83;21291;-55
2021/01/05 14:27:32;;;;;;;36.68;23.30;;;;;;;3.71;66.49;101157.20;1709043;83;21249;-53
2021/01/05 14:30:39;;;;;;;28.30;17.20;;;;;;;3.65;66.44;101151.74;1701967;84;21203;-53
2021/01/05 14:33:44;;;;;;;30.23;20.52;;;;;;;3.65;66.38;101149.52;1716135;83;21330;-54
2021/01/05 14:36:49;;;;;;;33.10;22.93;;;;;;;3.62;66.45;101154.68;1714516;83;21813;-54
2021/01/05 14:39:55;;;;;;;29.75;19.73;;;;;;;3.68;66.58;101157.44;1714592;83;21193;-53
2021/01/05 14:43:00;;;;;;;27.00;18.52;;;;;;;3.71;66.43;101152.64;1655808;86;21341;-53